LZIB/BTS METAR and TAF weather

Enter ICAO airport designator
Station Type Date Time Source
LZIB METAR 2021/09/24 04:00 UTC NOAA

LZIB 240400Z 26010KT CAVOK 17/10 Q1013 NOSIG


Station Type Date Time Source
LZIB Decoded METAR 2021/09/24 04:00 UTC NOAA

Bratislava Ivanka, Slovakia (LZIB) 48-12N 017-12E 142M
Sep 24, 2021 - 12:00 AM EDT / 2021.09.24 0400 UTC
Wind: from the W (260 degrees) at 12 MPH (10 KT):0
Visibility: greater than 7 mile(s):0
Temperature: 62 F (17 C)
Dew Point: 50 F (10 C)
Relative Humidity: 63%
Pressure (altimeter): 29.91 in. Hg (1013 hPa)
ob: LZIB 240400Z 26010KT CAVOK 17/10 Q1013 NOSIG
cycle: 4

Station Type Date Time Source
LZIB TAF 2021/09/23 18:33 UTC NOAA

TAF TAF LZIB 231700Z 2318/2418 22008KT CAVOK
BECMG 2400/2402 29010KT
TEMPO 2402/2416 30015G26KT 9999 SCT040

Example: see airport list